sensor_id;sensor_type;location;lat;lon;timestamp;pressure;altitude;pressure_sealevel;temperature;humidity
28181;BME280;15464;50.988;10.318;2023-01-30T00:01:39;99246.16;;;-1.78;94.52
28181;BME280;15464;50.988;10.318;2023-01-30T00:04:07;99242.75;;;-1.80;94.82
28181;BME280;15464;50.988;10.318;2023-01-30T00:06:33;99227.03;;;-1.76;95.52
28181;BME280;15464;50.988;10.318;2023-01-30T00:09:00;99213.94;;;-1.73;95.71
28181;BME280;15464;50.988;10.318;2023-01-30T00:11:26;99203.09;;;-1.87;96.68
28181;BME280;15464;50.988;10.318;2023-01-30T00:13:55;99175.25;;;-1.82;97.45
28181;BME280;15464;50.988;10.318;2023-01-30T00:16:22;99144.25;;;-1.88;98.23
28181;BME280;15464;50.988;10.318;2023-01-30T00:18:49;99140.13;;;-1.95;98.29
28181;BME280;15464;50.988;10.318;2023-01-30T00:21:16;99152.47;;;-2.01;98.94
28181;BME280;15464;50.988;10.318;2023-01-30T00:23:43;99163.56;;;-1.96;99.06
28181;BME280;15464;50.988;10.318;2023-01-30T00:26:10;99160.84;;;-1.93;99.42
28181;BME280;15464;50.988;10.318;2023-01-30T00:28:37;99148.00;;;-1.98;99.12
28181;BME280;15464;50.988;10.318;2023-01-30T00:31:05;99128.97;;;-1.98;99.10
28181;BME280;15464;50.988;10.318;2023-01-30T00:33:32;99131.72;;;-2.03;99.14
28181;BME280;15464;50.988;10.318;2023-01-30T00:36:00;99120.72;;;-2.11;99.27
28181;BME280;15464;50.988;10.318;2023-01-30T00:38:27;99120.47;;;-2.04;99.69
28181;BME280;15464;50.988;10.318;2023-01-30T00:40:54;99105.53;;;-1.97;99.27
28181;BME280;15464;50.988;10.318;2023-01-30T00:43:21;99093.56;;;-2.01;99.06
28181;BME280;15464;50.988;10.318;2023-01-30T00:49:06;99066.91;;;-2.08;99.24
28181;BME280;15464;50.988;10.318;2023-01-30T00:51:33;99061.16;;;-2.17;99.07
28181;BME280;15464;50.988;10.318;2023-01-30T00:54:00;99052.38;;;-2.13;99.52
28181;BME280;15464;50.988;10.318;2023-01-30T00:56:26;99060.88;;;-2.08;99.25
28181;BME280;15464;50.988;10.318;2023-01-30T00:58:53;99052.97;;;-2.05;99.06
28181;BME280;15464;50.988;10.318;2023-01-30T01:01:20;99072.13;;;-2.08;98.53
28181;BME280;15464;50.988;10.318;2023-01-30T01:03:46;99103.94;;;-2.01;97.86
28181;BME280;15464;50.988;10.318;2023-01-30T01:06:13;99092.50;;;-1.95;97.74
28181;BME280;15464;50.988;10.318;2023-01-30T01:08:40;99077.75;;;-1.95;97.70
28181;BME280;15464;50.988;10.318;2023-01-30T01:11:06;99055.28;;;-1.96;97.40
28181;BME280;15464;50.988;10.318;2023-01-30T01:13:33;99044.31;;;-2.06;97.39
28181;BME280;15464;50.988;10.318;2023-01-30T01:16:00;99042.44;;;-2.00;97.80
28181;BME280;15464;50.988;10.318;2023-01-30T01:18:27;99020.69;;;-1.98;97.83
28181;BME280;15464;50.988;10.318;2023-01-30T01:20:53;99030.97;;;-1.95;97.42
28181;BME280;15464;50.988;10.318;2023-01-30T01:23:20;99048.16;;;-1.91;97.18
28181;BME280;15464;50.988;10.318;2023-01-30T01:25:47;99036.19;;;-1.95;96.84
28181;BME280;15464;50.988;10.318;2023-01-30T01:28:13;99045.59;;;-1.92;97.30
28181;BME280;15464;50.988;10.318;2023-01-30T01:30:41;99048.81;;;-1.84;97.06
28181;BME280;15464;50.988;10.318;2023-01-30T01:33:07;99054.59;;;-1.76;97.12
28181;BME280;15464;50.988;10.318;2023-01-30T01:35:39;99059.00;;;-1.78;96.97
28181;BME280;15464;50.988;10.318;2023-01-30T01:38:06;99070.25;;;-1.78;97.16
28181;BME280;15464;50.988;10.318;2023-01-30T01:40:32;99050.13;;;-1.73;97.43
28181;BME280;15464;50.988;10.318;2023-01-30T01:43:20;99050.09;;;-1.71;97.27
28181;BME280;15464;50.988;10.318;2023-01-30T01:45:50;99038.66;;;-1.67;97.00
28181;BME280;15464;50.988;10.318;2023-01-30T01:48:41;99035.22;;;-1.68;97.80
28181;BME280;15464;50.988;10.318;2023-01-30T01:51:15;99019.63;;;-1.68;98.29
28181;BME280;15464;50.988;10.318;2023-01-30T01:53:54;99016.97;;;-1.66;98.02
28181;BME280;15464;50.988;10.318;2023-01-30T01:56:22;99006.41;;;-1.62;97.95
28181;BME280;15464;50.988;10.318;2023-01-30T01:58:53;99008.16;;;-1.62;97.82
28181;BME280;15464;50.988;10.318;2023-01-30T02:01:21;99001.91;;;-1.56;97.66
28181;BME280;15464;50.988;10.318;2023-01-30T02:03:52;98994.88;;;-1.54;97.90
28181;BME280;15464;50.988;10.318;2023-01-30T02:06:22;98982.69;;;-1.52;97.89
28181;BME280;15464;50.988;10.318;2023-01-30T02:08:52;98974.88;;;-1.52;97.78
28181;BME280;15464;50.988;10.318;2023-01-30T02:11:42;98965.16;;;-1.47;97.75
28181;BME280;15464;50.988;10.318;2023-01-30T02:14:12;98968.78;;;-1.51;97.83
28181;BME280;15464;50.988;10.318;2023-01-30T02:16:40;98972.06;;;-1.46;97.73
28181;BME280;15464;50.988;10.318;2023-01-30T02:38:03;98902.16;;;-1.32;98.06
28181;BME280;15464;50.988;10.318;2023-01-30T02:40:51;98900.34;;;-1.30;98.00
28181;BME280;15464;50.988;10.318;2023-01-30T02:48:26;98905.19;;;-1.21;98.27
28181;BME280;15464;50.988;10.318;2023-01-30T02:51:03;98906.66;;;-1.14;98.52
28181;BME280;15464;50.988;10.318;2023-01-30T02:53:34;98896.84;;;-1.07;98.32
28181;BME280;15464;50.988;10.318;2023-01-30T02:56:02;98917.72;;;-1.09;98.58
28181;BME280;15464;50.988;10.318;2023-01-30T02:58:41;98900.13;;;-1.02;99.05
28181;BME280;15464;50.988;10.318;2023-01-30T03:15:16;98862.22;;;-0.88;100.00
28181;BME280;15464;50.988;10.318;2023-01-30T03:17:48;98863.78;;;-0.84;100.00
28181;BME280;15464;50.988;10.318;2023-01-30T03:20:18;98837.75;;;-0.84;100.00
28181;BME280;15464;50.988;10.318;2023-01-30T03:22:45;98835.94;;;-0.82;100.00
28181;BME280;15464;50.988;10.318;2023-01-30T03:25:16;98844.56;;;-0.81;100.00
28181;BME280;15464;50.988;10.318;2023-01-30T03:27:45;98853.13;;;-0.77;100.00
28181;BME280;15464;50.988;10.318;2023-01-30T03:30:12;98859.03;;;-0.74;100.00
28181;BME280;15464;50.988;10.318;2023-01-30T03:32:38;98844.25;;;-0.73;100.00
28181;BME280;15464;50.988;10.318;2023-01-30T03:35:05;98838.94;;;-0.70;100.00
28181;BME280;15464;50.988;10.318;2023-01-30T03:37:32;98827.72;;;-0.72;100.00
28181;BME280;15464;50.988;10.318;2023-01-30T03:39:59;98823.38;;;-0.72;100.00
28181;BME280;15464;50.988;10.318;2023-01-30T03:42:26;98815.19;;;-0.63;100.00
28181;BME280;15464;50.988;10.318;2023-01-30T03:44:52;98806.59;;;-0.65;100.00
28181;BME280;15464;50.988;10.318;2023-01-30T03:47:19;98810.81;;;-0.62;100.00
28181;BME280;15464;50.988;10.318;2023-01-30T03:49:46;98808.13;;;-0.61;100.00
28181;BME280;15464;50.988;10.318;2023-01-30T03:52:12;98807.03;;;-0.55;100.00
28181;BME280;15464;50.988;10.318;2023-01-30T03:54:39;98798.44;;;-0.57;100.00
28181;BME280;15464;50.988;10.318;2023-01-30T03:57:05;98791.53;;;-0.58;100.00
28181;BME280;15464;50.988;10.318;2023-01-30T03:59:32;98773.97;;;-0.53;100.00
28181;BME280;15464;50.988;10.318;2023-01-30T04:01:59;98772.16;;;-0.51;100.00
28181;BME280;15464;50.988;10.318;2023-01-30T04:04:25;98766.03;;;-0.50;100.00
28181;BME280;15464;50.988;10.318;2023-01-30T04:06:52;98770.28;;;-0.49;100.00
28181;BME280;15464;50.988;10.318;2023-01-30T04:09:19;98781.50;;;-0.47;100.00
28181;BME280;15464;50.988;10.318;2023-01-30T04:11:45;98767.56;;;-0.46;100.00
28181;BME280;15464;50.988;10.318;2023-01-30T04:14:12;98752.00;;;-0.48;100.00
28181;BME280;15464;50.988;10.318;2023-01-30T04:16:39;98751.03;;;-0.45;100.00
28181;BME280;15464;50.988;10.318;2023-01-30T04:19:06;98760.44;;;-0.43;100.00
28181;BME280;15464;50.988;10.318;2023-01-30T04:21:32;98755.25;;;-0.43;100.00
28181;BME280;15464;50.988;10.318;2023-01-30T04:23:59;98735.13;;;-0.39;100.00
28181;BME280;15464;50.988;10.318;2023-01-30T04:26:26;98742.78;;;-0.36;100.00
28181;BME280;15464;50.988;10.318;2023-01-30T04:28:52;98735.75;;;-0.34;100.00
28181;BME280;15464;50.988;10.318;2023-01-30T04:31:19;98745.28;;;-0.33;100.00
28181;BME280;15464;50.988;10.318;2023-01-30T04:33:46;98744.22;;;-0.29;100.00
28181;BME280;15464;50.988;10.318;2023-01-30T04:36:13;98742.53;;;-0.30;100.00
28181;BME280;15464;50.988;10.318;2023-01-30T04:38:39;98729.38;;;-0.27;100.00
28181;BME280;15464;50.988;10.318;2023-01-30T04:41:06;98722.47;;;-0.28;100.00
28181;BME280;15464;50.988;10.318;2023-01-30T04:43:33;98742.41;;;-0.27;100.00
28181;BME280;15464;50.988;10.318;2023-01-30T04:46:00;98725.84;;;-0.26;100.00
28181;BME280;15464;50.988;10.318;2023-01-30T04:48:26;98720.63;;;-0.26;100.00
28181;BME280;15464;50.988;10.318;2023-01-30T04:50:54;98717.88;;;-0.23;100.00
28181;BME280;15464;50.988;10.318;2023-01-30T04:53:23;98714.38;;;-0.22;100.00
28181;BME280;15464;50.988;10.318;2023-01-30T04:55:50;98705.47;;;-0.18;100.00
28181;BME280;15464;50.988;10.318;2023-01-30T04:58:17;98713.38;;;-0.19;100.00
28181;BME280;15464;50.988;10.318;2023-01-30T05:00:45;98703.66;;;-0.16;100.00
28181;BME280;15464;50.988;10.318;2023-01-30T05:03:13;98690.63;;;-0.16;100.00
28181;BME280;15464;50.988;10.318;2023-01-30T05:05:40;98686.19;;;-0.14;100.00
28181;BME280;15464;50.988;10.318;2023-01-30T05:08:07;98686.09;;;-0.12;100.00
28181;BME280;15464;50.988;10.318;2023-01-30T05:10:34;98686.94;;;-0.12;100.00
28181;BME280;15464;50.988;10.318;2023-01-30T05:13:04;98678.38;;;-0.14;100.00
28181;BME280;15464;50.988;10.318;2023-01-30T05:15:32;98674.88;;;-0.13;100.00
28181;BME280;15464;50.988;10.318;2023-01-30T05:17:59;98673.00;;;-0.11;100.00
28181;BME280;15464;50.988;10.318;2023-01-30T05:20:26;98678.22;;;-0.11;100.00
28181;BME280;15464;50.988;10.318;2023-01-30T05:22:52;98678.09;;;-0.08;100.00
28181;BME280;15464;50.988;10.318;2023-01-30T05:25:19;98673.00;;;-0.11;100.00
28181;BME280;15464;50.988;10.318;2023-01-30T05:27:46;98667.84;;;-0.12;100.00
28181;BME280;15464;50.988;10.318;2023-01-30T05:30:13;98676.53;;;-0.12;100.00
28181;BME280;15464;50.988;10.318;2023-01-30T05:32:39;98664.56;;;-0.16;100.00
28181;BME280;15464;50.988;10.318;2023-01-30T05:35:06;98660.81;;;-0.10;100.00
28181;BME280;15464;50.988;10.318;2023-01-30T05:37:33;98667.72;;;-0.09;100.00
28181;BME280;15464;50.988;10.318;2023-01-30T05:40:00;98659.06;;;-0.10;100.00
28181;BME280;15464;50.988;10.318;2023-01-30T05:42:26;98647.72;;;-0.09;100.00
28181;BME280;15464;50.988;10.318;2023-01-30T05:44:53;98636.22;;;-0.05;100.00
28181;BME280;15464;50.988;10.318;2023-01-30T05:47:19;98639.75;;;-0.06;100.00
28181;BME280;15464;50.988;10.318;2023-01-30T05:49:46;98637.63;;;0.03;100.00
28181;BME280;15464;50.988;10.318;2023-01-30T05:52:13;98620.28;;;0.02;100.00
28181;BME280;15464;50.988;10.318;2023-01-30T05:54:39;98619.38;;;0.03;100.00
28181;BME280;15464;50.988;10.318;2023-01-30T05:57:06;98616.09;;;-0.01;100.00
28181;BME280;15464;50.988;10.318;2023-01-30T05:59:33;98620.28;;;0.02;100.00
28181;BME280;15464;50.988;10.318;2023-01-30T06:01:59;98619.38;;;0.03;100.00
28181;BME280;15464;50.988;10.318;2023-01-30T06:04:26;98625.06;;;0.11;100.00
28181;BME280;15464;50.988;10.318;2023-01-30T06:06:52;98619.84;;;0.11;100.00
28181;BME280;15464;50.988;10.318;2023-01-30T06:09:19;98618.16;;;0.10;100.00
28181;BME280;15464;50.988;10.318;2023-01-30T06:11:46;98617.31;;;0.09;100.00
28181;BME280;15464;50.988;10.318;2023-01-30T06:14:12;98615.38;;;0.13;100.00
28181;BME280;15464;50.988;10.318;2023-01-30T06:16:39;98624.91;;;0.14;100.00
28181;BME280;15464;50.988;10.318;2023-01-30T06:19:07;98616.09;;;0.16;100.00
28181;BME280;15464;50.988;10.318;2023-01-30T06:21:33;98616.03;;;0.18;100.00
28181;BME280;15464;50.988;10.318;2023-01-30T06:24:00;98614.19;;;0.20;100.00
28181;BME280;15464;50.988;10.318;2023-01-30T06:26:27;98615.19;;;0.17;100.00
28181;BME280;15464;50.988;10.318;2023-01-30T06:28:54;98617.63;;;0.20;100.00
28181;BME280;15464;50.988;10.318;2023-01-30T06:31:21;98624.63;;;0.20;100.00
28181;BME280;15464;50.988;10.318;2023-01-30T06:33:47;98622.66;;;0.25;100.00
28181;BME280;15464;50.988;10.318;2023-01-30T06:36:14;98608.66;;;0.26;100.00
28181;BME280;15464;50.988;10.318;2023-01-30T06:38:41;98624.53;;;0.21;100.00
28181;BME280;15464;50.988;10.318;2023-01-30T06:41:08;98629.41;;;0.29;100.00
28181;BME280;15464;50.988;10.318;2023-01-30T06:43:34;98632.91;;;0.28;100.00
28181;BME280;15464;50.988;10.318;2023-01-30T06:46:01;98624.31;;;0.26;100.00
28181;BME280;15464;50.988;10.318;2023-01-30T06:48:28;98620.94;;;0.24;100.00
28181;BME280;15464;50.988;10.318;2023-01-30T06:50:55;98637.34;;;0.26;100.00
28181;BME280;15464;50.988;10.318;2023-01-30T06:53:21;98618.72;;;0.16;100.00
28181;BME280;15464;50.988;10.318;2023-01-30T06:55:50;98622.16;;;0.17;100.00
28181;BME280;15464;50.988;10.318;2023-01-30T06:58:17;98631.69;;;0.18;100.00
28181;BME280;15464;50.988;10.318;2023-01-30T07:00:44;98635.22;;;0.17;100.00
28181;BME280;15464;50.988;10.318;2023-01-30T07:03:12;98627.38;;;0.17;100.00
28181;BME280;15464;50.988;10.318;2023-01-30T07:05:40;98629.94;;;0.18;100.00
28181;BME280;15464;50.988;10.318;2023-01-30T07:08:07;98637.75;;;0.18;100.00
28181;BME280;15464;50.988;10.318;2023-01-30T07:10:34;98638.59;;;0.19;100.00
28181;BME280;15464;50.988;10.318;2023-01-30T07:13:02;98633.38;;;0.19;100.00
28181;BME280;15464;50.988;10.318;2023-01-30T07:15:29;98637.59;;;0.21;100.00
28181;BME280;15464;50.988;10.318;2023-01-30T07:17:56;98617.72;;;0.19;100.00
28181;BME280;15464;50.988;10.318;2023-01-30T07:20:22;98626.31;;;0.21;100.00
28181;BME280;15464;50.988;10.318;2023-01-30T07:22:53;98628.00;;;0.22;100.00
28181;BME280;15464;50.988;10.318;2023-01-30T07:25:24;98630.25;;;0.29;100.00
28181;BME280;15464;50.988;10.318;2023-01-30T07:27:51;98639.13;;;0.25;100.00
28181;BME280;15464;50.988;10.318;2023-01-30T07:30:19;98625.09;;;0.28;100.00
28181;BME280;15464;50.988;10.318;2023-01-30T07:32:50;98639.03;;;0.27;100.00
28181;BME280;15464;50.988;10.318;2023-01-30T07:35:17;98638.97;;;0.28;100.00
28181;BME280;15464;50.988;10.318;2023-01-30T07:37:48;98638.13;;;0.28;100.00
28181;BME280;15464;50.988;10.318;2023-01-30T07:40:16;98627.56;;;0.31;100.00
28181;BME280;15464;50.988;10.318;2023-01-30T07:42:55;98630.00;;;0.34;100.00
28181;BME280;15464;50.988;10.318;2023-01-30T07:45:22;98636.00;;;0.36;100.00
28181;BME280;15464;50.988;10.318;2023-01-30T07:47:49;98632.47;;;0.37;100.00
28181;BME280;15464;50.988;10.318;2023-01-30T07:50:16;98625.25;;;0.42;100.00
28181;BME280;15464;50.988;10.318;2023-01-30T07:52:43;98624.34;;;0.43;100.00
28181;BME280;15464;50.988;10.318;2023-01-30T07:55:10;98620.91;;;0.43;100.00
28181;BME280;15464;50.988;10.318;2023-01-30T07:57:36;98614.81;;;0.42;100.00
28181;BME280;15464;50.988;10.318;2023-01-30T08:00:04;98609.44;;;0.45;100.00
28181;BME280;15464;50.988;10.318;2023-01-30T08:02:30;98620.78;;;0.44;100.00
28181;BME280;15464;50.988;10.318;2023-01-30T08:04:57;98619.19;;;0.42;100.00
28181;BME280;15464;50.988;10.318;2023-01-30T08:07:24;98620.03;;;0.42;100.00
28181;BME280;15464;50.988;10.318;2023-01-30T08:09:51;98617.13;;;0.48;100.00
28181;BME280;15464;50.988;10.318;2023-01-30T08:12:17;98591.03;;;0.48;100.00
28181;BME280;15464;50.988;10.318;2023-01-30T08:14:44;98591.97;;;0.47;100.00
28181;BME280;15464;50.988;10.318;2023-01-30T08:17:11;98607.53;;;0.49;100.00
28181;BME280;15464;50.988;10.318;2023-01-30T08:19:38;98593.47;;;0.51;100.00
28181;BME280;15464;50.988;10.318;2023-01-30T08:22:04;98608.09;;;0.55;100.00
28181;BME280;15464;50.988;10.318;2023-01-30T08:24:31;98595.03;;;0.55;100.00
28181;BME280;15464;50.988;10.318;2023-01-30T08:26:57;98599.41;;;0.55;100.00
28181;BME280;15464;50.988;10.318;2023-01-30T08:29:25;98616.66;;;0.57;100.00
28181;BME280;15464;50.988;10.318;2023-01-30T08:31:56;98611.69;;;0.53;100.00
28181;BME280;15464;50.988;10.318;2023-01-30T08:34:23;98609.13;;;0.51;100.00
28181;BME280;15464;50.988;10.318;2023-01-30T08:36:50;98607.31;;;0.53;100.00
28181;BME280;15464;50.988;10.318;2023-01-30T08:39:17;98618.66;;;0.52;100.00
28181;BME280;15464;50.988;10.318;2023-01-30T08:41:44;98613.31;;;0.55;100.00
28181;BME280;15464;50.988;10.318;2023-01-30T08:44:11;98609.66;;;0.58;100.00
28181;BME280;15464;50.988;10.318;2023-01-30T08:46:38;98621.88;;;0.57;100.00
28181;BME280;15464;50.988;10.318;2023-01-30T08:49:05;98622.13;;;0.53;100.00
28181;BME280;15464;50.988;10.318;2023-01-30T08:51:32;98601.84;;;0.58;100.00
28181;BME280;15464;50.988;10.318;2023-01-30T08:53:59;98596.56;;;0.59;100.00
28181;BME280;15464;50.988;10.318;2023-01-30T08:56:25;98593.63;;;0.65;100.00
28181;BME280;15464;50.988;10.318;2023-01-30T08:58:52;98588.69;;;0.76;100.00
28181;BME280;15464;50.988;10.318;2023-01-30T09:01:19;98573.94;;;0.93;100.00
28181;BME280;15464;50.988;10.318;2023-01-30T09:03:46;98583.53;;;0.92;100.00
28181;BME280;15464;50.988;10.318;2023-01-30T09:06:13;98598.19;;;0.95;100.00
28181;BME280;15464;50.988;10.318;2023-01-30T09:08:39;98582.38;;;0.98;100.00
28181;BME280;15464;50.988;10.318;2023-01-30T09:11:06;98576.25;;;0.99;100.00
28181;BME280;15464;50.988;10.318;2023-01-30T09:13:33;98573.38;;;1.03;100.00
28181;BME280;15464;50.988;10.318;2023-01-30T09:16:00;98584.41;;;1.08;100.00
28181;BME280;15464;50.988;10.318;2023-01-30T09:18:27;98576.66;;;1.07;100.00
28181;BME280;15464;50.988;10.318;2023-01-30T09:21:01;98587.03;;;1.08;100.00
28181;BME280;15464;50.988;10.318;2023-01-30T09:23:28;98578.88;;;1.14;100.00
28181;BME280;15464;50.988;10.318;2023-01-30T09:25:55;98592.69;;;1.16;100.00
28181;BME280;15464;50.988;10.318;2023-01-30T09:28:22;98604.25;;;1.12;100.00
28181;BME280;15464;50.988;10.318;2023-01-30T09:30:48;98593.88;;;1.11;100.00
28181;BME280;15464;50.988;10.318;2023-01-30T09:33:15;98593.53;;;1.17;100.00
28181;BME280;15464;50.988;10.318;2023-01-30T09:35:46;98592.63;;;1.18;100.00
28181;BME280;15464;50.988;10.318;2023-01-30T09:38:13;98588.66;;;1.11;100.00
28181;BME280;15464;50.988;10.318;2023-01-30T09:41:25;98588.78;;;1.08;100.00
28181;BME280;15464;50.988;10.318;2023-01-30T09:44:04;98580.03;;;1.09;100.00
28181;BME280;15464;50.988;10.318;2023-01-30T09:51:45;98581.22;;;1.19;100.00
28181;BME280;15464;50.988;10.318;2023-01-30T09:54:29;98567.09;;;1.23;100.00
28181;BME280;15464;50.988;10.318;2023-01-30T10:03:03;98589.03;;;1.36;100.00
28181;BME280;15464;50.988;10.318;2023-01-30T10:05:45;98597.59;;;1.38;100.00
28181;BME280;15464;50.988;10.318;2023-01-30T10:14:23;98627.78;;;1.44;100.00
28181;BME280;15464;50.988;10.318;2023-01-30T10:25:24;98632.59;;;1.51;100.00
28181;BME280;15464;50.988;10.318;2023-01-30T10:28:01;98637.44;;;1.59;100.00
28181;BME280;15464;50.988;10.318;2023-01-30T10:30:29;98626.91;;;1.60;100.00
28181;BME280;15464;50.988;10.318;2023-01-30T10:33:01;98634.56;;;1.63;100.00
28181;BME280;15464;50.988;10.318;2023-01-30T10:35:41;98641.81;;;1.58;100.00
28181;BME280;15464;50.988;10.318;2023-01-30T10:38:17;98643.66;;;1.56;100.00
28181;BME280;15464;50.988;10.318;2023-01-30T10:40:56;98639.44;;;1.54;100.00
28181;BME280;15464;50.988;10.318;2023-01-30T10:51:44;98639.38;;;1.55;100.00
28181;BME280;15464;50.988;10.318;2023-01-30T10:54:36;98646.88;;;1.61;100.00
28181;BME280;15464;50.988;10.318;2023-01-30T11:05:52;98641.13;;;1.71;100.00
28181;BME280;15464;50.988;10.318;2023-01-30T11:08:31;98648.06;;;1.72;100.00
28181;BME280;15464;50.988;10.318;2023-01-30T11:10:59;98650.34;;;1.78;100.00
28181;BME280;15464;50.988;10.318;2023-01-30T11:13:31;98640.66;;;1.80;100.00
28181;BME280;15464;50.988;10.318;2023-01-30T11:16:03;98645.97;;;1.78;100.00
28181;BME280;15464;50.988;10.318;2023-01-30T11:18:31;98647.91;;;1.75;100.00
28181;BME280;15464;50.988;10.318;2023-01-30T11:21:22;98639.13;;;1.76;100.00
28181;BME280;15464;50.988;10.318;2023-01-30T11:24:03;98638.63;;;1.85;100.00
28181;BME280;15464;50.988;10.318;2023-01-30T11:26:33;98629.00;;;1.85;100.00
28181;BME280;15464;50.988;10.318;2023-01-30T11:29:28;98612.28;;;1.88;100.00
28181;BME280;15464;50.988;10.318;2023-01-30T11:31:57;98594.75;;;1.90;100.00
28181;BME280;15464;50.988;10.318;2023-01-30T11:34:28;98600.66;;;1.93;100.00
28181;BME280;15464;50.988;10.318;2023-01-30T11:37:33;98618.03;;;1.94;100.00
28181;BME280;15464;50.988;10.318;2023-01-30T11:39:58;98606.97;;;2.05;100.00
28181;BME280;15464;50.988;10.318;2023-01-30T11:42:29;98604.88;;;2.12;100.00
28181;BME280;15464;50.988;10.318;2023-01-30T11:45:00;98610.19;;;2.10;100.00
28181;BME280;15464;50.988;10.318;2023-01-30T11:47:59;98609.13;;;2.13;100.00
28181;BME280;15464;50.988;10.318;2023-01-30T11:50:40;98597.81;;;2.28;100.00
28181;BME280;15464;50.988;10.318;2023-01-30T11:55:57;98585.44;;;2.46;100.00
28181;BME280;15464;50.988;10.318;2023-01-30T11:58:35;98584.34;;;2.50;100.00
28181;BME280;15464;50.988;10.318;2023-01-30T12:01:04;98591.34;;;2.49;100.00
28181;BME280;15464;50.988;10.318;2023-01-30T12:03:38;98585.34;;;2.47;100.00
28181;BME280;15464;50.988;10.318;2023-01-30T12:06:10;98566.94;;;2.49;100.00
28181;BME280;15464;50.988;10.318;2023-01-30T12:08:39;98576.75;;;2.45;100.00
28181;BME280;15464;50.988;10.318;2023-01-30T12:11:56;98583.75;;;2.44;100.00
28181;BME280;15464;50.988;10.318;2023-01-30T12:14:18;98577.91;;;2.55;100.00
28181;BME280;15464;50.988;10.318;2023-01-30T12:17:32;98575.38;;;2.54;100.00
28181;BME280;15464;50.988;10.318;2023-01-30T12:25:20;98590.63;;;2.75;100.00
28181;BME280;15464;50.988;10.318;2023-01-30T12:28:00;98576.13;;;2.70;100.00
28181;BME280;15464;50.988;10.318;2023-01-30T12:30:37;98561.75;;;2.77;100.00
28181;BME280;15464;50.988;10.318;2023-01-30T12:33:11;98562.69;;;2.90;100.00
28181;BME280;15464;50.988;10.318;2023-01-30T12:36:00;98565.88;;;2.81;100.00
28181;BME280;15464;50.988;10.318;2023-01-30T12:55:29;98537.63;;;3.14;99.70
28181;BME280;15464;50.988;10.318;2023-01-30T12:58:14;98533.50;;;3.24;99.95
28181;BME280;15464;50.988;10.318;2023-01-30T13:08:50;98536.06;;;3.53;94.97
28181;BME280;15464;50.988;10.318;2023-01-30T13:11:53;98536.53;;;3.59;96.28
28181;BME280;15464;50.988;10.318;2023-01-30T13:21:03;98560.28;;;3.71;92.71
28181;BME280;15464;50.988;10.318;2023-01-30T13:26:12;98556.53;;;3.75;91.15
28181;BME280;15464;50.988;10.318;2023-01-30T13:28:49;98558.66;;;3.82;89.96
28181;BME280;15464;50.988;10.318;2023-01-30T13:31:22;98555.31;;;3.80;89.18
28181;BME280;15464;50.988;10.318;2023-01-30T13:34:06;98571.22;;;3.77;88.06
28181;BME280;15464;50.988;10.318;2023-01-30T13:36:48;98577.31;;;3.78;89.38
28181;BME280;15464;50.988;10.318;2023-01-30T13:39:26;98581.31;;;3.83;89.57
28181;BME280;15464;50.988;10.318;2023-01-30T13:41:56;98591.81;;;3.83;88.78
28181;BME280;15464;50.988;10.318;2023-01-30T13:44:28;98596.66;;;3.89;89.73
28181;BME280;15464;50.988;10.318;2023-01-30T13:47:06;98605.88;;;3.82;89.21
28181;BME280;15464;50.988;10.318;2023-01-30T13:49:52;98595.59;;;3.79;88.98
28181;BME280;15464;50.988;10.318;2023-01-30T13:52:45;98599.53;;;3.72;84.94
28181;BME280;15464;50.988;10.318;2023-01-30T14:00:52;98611.88;;;3.70;87.03
28181;BME280;15464;50.988;10.318;2023-01-30T14:08:25;98609.00;;;3.75;86.46
28181;BME280;15464;50.988;10.318;2023-01-30T14:10:54;98596.88;;;3.86;86.53
28181;BME280;15464;50.988;10.318;2023-01-30T14:13:25;98583.50;;;4.03;86.24
28181;BME280;15464;50.988;10.318;2023-01-30T14:15:55;98603.41;;;4.20;85.92
28181;BME280;15464;50.988;10.318;2023-01-30T14:18:24;98593.47;;;4.38;85.28
28181;BME280;15464;50.988;10.318;2023-01-30T14:20:52;98589.63;;;4.56;81.98
28181;BME280;15464;50.988;10.318;2023-01-30T14:23:37;98590.78;;;4.52;81.72
28181;BME280;15464;50.988;10.318;2023-01-30T14:26:03;98594.47;;;4.50;79.68
28181;BME280;15464;50.988;10.318;2023-01-30T14:31:01;98592.53;;;4.39;75.01
28181;BME280;15464;50.988;10.318;2023-01-30T14:33:34;98587.69;;;4.33;75.88
28181;BME280;15464;50.988;10.318;2023-01-30T14:38:39;98609.63;;;4.32;74.88
28181;BME280;15464;50.988;10.318;2023-01-30T14:41:36;98599.25;;;4.30;73.10
28181;BME280;15464;50.988;10.318;2023-01-30T14:44:02;98582.53;;;4.31;73.96
28181;BME280;15464;50.988;10.318;2023-01-30T14:49:03;98615.31;;;4.38;72.32
28181;BME280;15464;50.988;10.318;2023-01-30T14:57:03;98641.50;;;4.40;72.76
28181;BME280;15464;50.988;10.318;2023-01-30T14:59:34;98647.91;;;4.36;74.49
28181;BME280;15464;50.988;10.318;2023-01-30T15:04:45;98667.00;;;4.38;75.36
28181;BME280;15464;50.988;10.318;2023-01-30T15:07:44;98672.84;;;4.29;77.10
28181;BME280;15464;50.988;10.318;2023-01-30T15:15:25;98695.03;;;4.11;79.61
28181;BME280;15464;50.988;10.318;2023-01-30T15:26:46;98719.38;;;4.13;77.53
28181;BME280;15464;50.988;10.318;2023-01-30T15:32:25;98741.03;;;4.16;77.19
28181;BME280;15464;50.988;10.318;2023-01-30T15:42:49;98733.06;;;4.18;77.25
28181;BME280;15464;50.988;10.318;2023-01-30T15:45:22;98737.72;;;4.27;76.53
28181;BME280;15464;50.988;10.318;2023-01-30T15:48:02;98760.59;;;4.25;76.83
28181;BME280;15464;50.988;10.318;2023-01-30T15:50:32;98781.25;;;4.17;77.59
28181;BME280;15464;50.988;10.318;2023-01-30T15:52:58;98787.44;;;4.16;77.46
28181;BME280;15464;50.988;10.318;2023-01-30T15:58:05;98806.75;;;4.15;76.91
28181;BME280;15464;50.988;10.318;2023-01-30T16:00:36;98829.44;;;4.16;75.42
28181;BME280;15464;50.988;10.318;2023-01-30T16:03:10;98810.50;;;4.11;75.45
28181;BME280;15464;50.988;10.318;2023-01-30T16:05:49;98842.16;;;4.07;75.63
28181;BME280;15464;50.988;10.318;2023-01-30T16:08:35;98843.09;;;4.06;74.80